createdAt,value
2022-08-04T00:04:09.859Z,2.67
2022-08-04T00:09:35.909Z,2.50
2022-08-04T00:14:36.303Z,3.10
2022-08-04T00:19:38.053Z,2.25
2022-08-04T00:24:36.298Z,2.50
2022-08-04T00:29:34.881Z,2.83
2022-08-04T00:34:32.028Z,2.70
2022-08-04T00:39:30.151Z,2.38
2022-08-04T00:44:35.673Z,2.67
2022-08-04T00:49:57.336Z,2.60
2022-08-04T00:55:05.408Z,2.55
2022-08-04T01:00:11.840Z,2.10
2022-08-04T01:05:27.300Z,2.95
2022-08-04T01:10:48.470Z,2.50
2022-08-04T01:16:00.549Z,2.20
2022-08-04T01:21:19.237Z,2.70
2022-08-04T01:26:53.713Z,2.78
2022-08-04T01:32:02.483Z,2.38
2022-08-04T01:37:08.251Z,2.40
2022-08-04T01:42:06.078Z,2.40
2022-08-04T01:47:07.868Z,2.40
2022-08-04T01:52:05.905Z,2.20
2022-08-04T01:57:37.674Z,2.45
2022-08-04T02:02:25.159Z,2.67
2022-08-04T02:07:36.778Z,2.30
2022-08-04T02:13:03.913Z,2.28
2022-08-04T02:18:12.655Z,2.45
2022-08-04T02:23:14.384Z,2.20
2022-08-04T02:28:26.395Z,2.80
2022-08-04T02:33:42.807Z,2.70
2022-08-04T02:43:51.811Z,2.77
2022-08-04T02:48:50.766Z,2.75
2022-08-04T02:53:53.111Z,2.85
2022-08-04T02:58:53.044Z,2.70
2022-08-04T03:04:24.923Z,2.00
2022-08-04T03:09:51.651Z,2.80
2022-08-04T03:15:09.689Z,2.78
2022-08-04T03:20:44.384Z,2.80
2022-08-04T03:26:25.145Z,2.47
2022-08-04T03:31:30.429Z,2.50
2022-08-04T03:36:44.448Z,2.85
2022-08-04T03:42:03.266Z,3.30
2022-08-04T03:47:18.898Z,3.10
2022-08-04T03:52:55.771Z,3.47
2022-08-04T03:58:28.489Z,2.63
2022-08-04T04:03:45.614Z,2.80
2022-08-04T04:08:45.581Z,2.65
2022-08-04T04:14:35.646Z,2.97
2022-08-04T04:19:37.896Z,3.40
2022-08-04T04:24:34.595Z,3.15
2022-08-04T04:30:04.384Z,3.00
2022-08-04T04:35:27.269Z,2.75
2022-08-04T04:41:02.937Z,3.17
2022-08-04T04:46:24.963Z,3.33
2022-08-04T04:51:34.095Z,3.10
2022-08-04T04:56:38.724Z,3.40
2022-08-04T05:01:53.166Z,3.25
2022-08-04T05:07:07.614Z,3.22
2022-08-04T05:14:37.626Z,3.22
2022-08-04T05:19:08.383Z,2.80
2022-08-04T05:30:12.101Z,3.00
2022-08-04T05:35:12.853Z,2.47
2022-08-04T05:40:11.171Z,2.70
2022-08-04T05:45:09.478Z,2.78
2022-08-04T05:50:07.199Z,2.53
2022-08-04T05:55:04.972Z,2.85
2022-08-04T06:00:14.828Z,3.13
2022-08-04T06:05:25.420Z,2.55
2022-08-04T06:10:29.250Z,2.40
2022-08-04T06:20:39.637Z,3.03
2022-08-04T06:25:50.465Z,2.88
2022-08-04T06:30:49.829Z,2.70
2022-08-04T06:35:46.654Z,2.72
2022-08-04T06:40:43.685Z,2.80
2022-08-04T06:45:41.887Z,2.47
2022-08-04T06:51:24.662Z,2.58
2022-08-04T06:55:57.518Z,2.35
2022-08-04T07:00:54.977Z,3.80
2022-08-04T07:05:52.270Z,2.53
2022-08-04T07:10:51.800Z,3.00
2022-08-04T07:15:49.054Z,2.03
2022-08-04T07:21:39.201Z,2.38
2022-08-04T07:27:07.059Z,2.20
2022-08-04T07:32:16.339Z,2.35
2022-08-04T07:37:44.659Z,2.40
2022-08-04T07:43:36.486Z,2.13
2022-08-04T07:49:54.369Z,2.30
2022-08-04T07:54:45.561Z,1.98
2022-08-04T07:59:50.269Z,1.90
2022-08-04T08:05:04.172Z,2.10
2022-08-04T08:22:21.101Z,1.90
2022-08-04T08:34:10.975Z,2.45
2022-08-04T08:45:54.922Z,1.80
2022-08-04T08:51:31.997Z,2.20
2022-08-04T08:56:45.951Z,1.95
2022-08-04T09:02:25.340Z,2.00
2022-08-04T09:07:22.048Z,2.33
2022-08-04T09:12:25.875Z,1.90
2022-08-04T09:17:29.501Z,1.75
2022-08-04T09:22:39.989Z,1.80
2022-08-04T09:27:48.260Z,2.08
2022-08-04T09:33:44.621Z,2.00
2022-08-04T09:39:11.178Z,1.95
2022-08-04T09:44:50.316Z,1.98
2022-08-04T09:49:52.677Z,1.85
2022-08-04T09:55:26.984Z,1.73
2022-08-04T10:00:41.396Z,2.00
2022-08-04T10:06:06.801Z,2.00
2022-08-04T10:11:56.474Z,2.28
2022-08-04T10:17:26.308Z,1.50
2022-08-04T10:22:37.111Z,1.88
2022-08-04T10:27:45.416Z,1.90
2022-08-04T10:32:52.192Z,1.73
2022-08-04T10:38:03.719Z,2.30
2022-08-04T10:43:27.636Z,1.98
2022-08-04T10:48:47.224Z,2.67
2022-08-04T10:53:45.492Z,2.40
2022-08-04T10:58:55.459Z,2.00
2022-08-04T11:03:56.783Z,1.98
2022-08-04T11:08:56.029Z,1.92
2022-08-04T11:14:13.231Z,2.00
2022-08-04T11:19:43.030Z,1.98
2022-08-04T11:24:46.540Z,2.40
2022-08-04T11:29:53.518Z,1.92
2022-08-04T11:34:53.259Z,1.83
2022-08-04T11:40:12.042Z,2.22
2022-08-04T11:45:13.176Z,2.20
2022-08-04T11:50:41.462Z,2.10
2022-08-04T11:56:07.737Z,2.20
2022-08-04T12:01:23.221Z,1.83
2022-08-04T12:06:33.465Z,3.05
2022-08-04T12:11:54.565Z,1.73
2022-08-04T12:17:01.565Z,1.70
2022-08-04T12:22:01.779Z,1.80
2022-08-04T12:27:04.943Z,1.50
2022-08-04T12:32:12.644Z,1.70
2022-08-04T12:37:22.266Z,1.40
2022-08-04T12:42:34.376Z,1.60
2022-08-04T12:47:31.259Z,2.03
2022-08-04T12:52:51.584Z,1.70
2022-08-04T12:57:45.438Z,1.63
2022-08-04T13:02:43.881Z,2.60
2022-08-04T13:07:44.906Z,1.92
2022-08-04T13:13:02.563Z,2.03
2022-08-04T13:18:00.024Z,1.50
2022-08-04T13:23:09.084Z,1.52
2022-08-04T13:28:06.722Z,1.70
2022-08-04T13:33:04.616Z,1.70
2022-08-04T13:38:02.025Z,1.58
2022-08-04T13:42:58.766Z,1.70
2022-08-04T13:47:59.027Z,1.63
2022-08-04T13:53:12.236Z,1.60
2022-08-04T13:58:22.179Z,1.52
2022-08-04T14:03:53.913Z,2.05
2022-08-04T14:08:55.641Z,1.67
2022-08-04T14:13:52.294Z,2.25
2022-08-04T14:19:01.697Z,1.90
2022-08-04T14:24:00.618Z,1.70
2022-08-04T14:29:27.231Z,1.65
2022-08-04T14:34:26.842Z,1.90
2022-08-04T14:39:38.487Z,1.88
2022-08-04T14:44:53.957Z,1.70
2022-08-04T14:49:55.203Z,1.60
2022-08-04T14:54:51.750Z,1.88
2022-08-04T14:59:59.421Z,2.47
2022-08-04T15:04:59.939Z,2.20
2022-08-04T15:10:16.727Z,2.63
2022-08-04T15:15:35.221Z,3.50
2022-08-04T15:20:31.712Z,3.10
2022-08-04T15:25:28.340Z,3.63
2022-08-04T15:30:24.855Z,3.95
2022-08-04T15:35:32.006Z,4.18
2022-08-04T15:41:04.019Z,3.60
2022-08-04T15:46:41.109Z,3.63
2022-08-04T15:51:28.329Z,3.65
2022-08-04T15:56:28.850Z,3.17
2022-08-04T16:01:29.947Z,2.95
2022-08-04T16:06:27.484Z,4.43
2022-08-04T16:11:31.523Z,3.22
2022-08-04T16:16:57.380Z,3.17
2022-08-04T16:21:56.160Z,3.70
2022-08-04T16:26:57.488Z,3.78
2022-08-04T16:32:06.845Z,3.30
2022-08-04T16:37:08.947Z,2.72
2022-08-04T16:42:30.328Z,2.92
2022-08-04T16:47:48.666Z,3.50
2022-08-04T16:52:46.802Z,3.30
2022-08-04T16:57:47.231Z,2.70
2022-08-04T17:02:47.360Z,2.80
2022-08-04T17:08:28.009Z,2.90
2022-08-04T17:14:03.552Z,3.33
2022-08-04T17:24:14.247Z,2.97
2022-08-04T17:29:01.555Z,2.78
2022-08-04T17:34:00.628Z,2.95
2022-08-04T17:39:00.079Z,3.55
2022-08-04T17:44:03.875Z,3.67
2022-08-04T17:49:06.946Z,3.75
2022-08-04T17:54:04.807Z,3.30
2022-08-04T17:59:52.273Z,3.42
2022-08-04T18:04:39.188Z,3.60
2022-08-04T18:10:27.463Z,3.55
2022-08-04T18:20:45.780Z,3.40
2022-08-04T18:31:04.115Z,5.05
2022-08-04T18:36:33.379Z,2.92
2022-08-04T18:41:17.331Z,3.15
2022-08-04T18:46:15.267Z,2.63
2022-08-04T18:51:23.651Z,2.90
2022-08-04T18:56:29.745Z,3.42
2022-08-04T19:01:30.001Z,2.90
2022-08-04T19:06:45.367Z,2.88
2022-08-04T19:11:55.301Z,3.75
2022-08-04T19:16:52.748Z,3.50
2022-08-04T19:21:59.705Z,3.38
2022-08-04T19:26:58.844Z,2.60
2022-08-04T19:31:55.351Z,2.60
2022-08-04T19:36:52.555Z,3.00
2022-08-04T19:42:05.662Z,2.70
2022-08-04T19:48:17.827Z,3.03
2022-08-04T19:57:37.991Z,2.50
2022-08-04T20:02:37.985Z,2.78
2022-08-04T20:07:34.653Z,2.80
2022-08-04T20:12:31.769Z,3.00
2022-08-04T20:18:06.852Z,2.15
2022-08-04T20:22:52.593Z,2.25
2022-08-04T20:28:00.258Z,2.40
2022-08-04T20:32:58.038Z,2.50
2022-08-04T20:43:14.467Z,2.10
2022-08-04T20:48:12.422Z,2.55
2022-08-04T20:53:16.753Z,2.42
2022-08-04T20:58:13.727Z,2.72
2022-08-04T21:03:10.438Z,2.60
2022-08-04T21:08:07.137Z,3.22
2022-08-04T21:13:03.741Z,3.00
2022-08-04T21:18:04.542Z,4.28
2022-08-04T21:23:02.169Z,3.53
2022-08-04T21:28:04.296Z,4.78
2022-08-04T21:33:01.243Z,4.90
2022-08-04T21:38:01.373Z,5.10
2022-08-04T21:42:59.334Z,5.20
2022-08-04T21:47:59.508Z,4.88
2022-08-04T21:52:56.051Z,5.53
2022-08-04T21:57:54.093Z,6.30
2022-08-04T22:02:53.546Z,6.20
2022-08-04T22:07:51.925Z,7.35
2022-08-04T22:12:52.087Z,7.53
2022-08-04T22:17:48.883Z,7.90
2022-08-04T22:22:53.577Z,7.70
2022-08-04T22:28:07.820Z,7.28
2022-08-04T22:33:07.489Z,8.00
2022-08-04T22:38:07.365Z,8.30
2022-08-04T22:43:31.833Z,7.15
2022-08-04T22:48:32.005Z,8.52
2022-08-04T22:53:29.040Z,8.23
2022-08-04T22:58:28.649Z,7.93
2022-08-04T23:03:37.792Z,8.07
2022-08-04T23:08:36.378Z,8.93
2022-08-04T23:13:33.080Z,8.60
2022-08-04T23:18:29.628Z,8.32
2022-08-04T23:23:26.209Z,8.52
2022-08-04T23:28:24.388Z,8.73
2022-08-04T23:33:20.956Z,7.47
2022-08-04T23:38:31.331Z,7.38
2022-08-04T23:43:28.726Z,8.23
2022-08-04T23:48:45.581Z,6.60
2022-08-04T23:54:02.526Z,6.88
2022-08-04T23:59:00.560Z,6.50
